Time;durP1;ratioP1;P1;durP2;ratioP2;P2;SDS_P1;SDS_P2;PMS_P1;PMS_P2;Temp;Humidity;BMP_temperature;BMP_pressure;BME280_temperature;BME280_humidity;BME280_pressure;Samples;Min_cycle;Max_cycle;Signal;HPM_P1;HPM_P2
2023/08/10 00:01:49;;;;;;;9.75;5.57;;;11.80;99.90;;;;;;5017463;28;20069;-55
2023/08/10 00:04:16;;;;;;;8.38;5.45;;;11.80;99.90;;;;;;5020142;28;20045;-53
2023/08/10 00:06:45;;;;;;;7.60;5.07;;;11.80;99.90;;;;;;5017335;28;20502;-51
2023/08/10 00:09:12;;;;;;;8.80;5.85;;;11.80;99.90;;;;;;5020993;28;20072;-51
2023/08/10 00:11:40;;;;;;;7.80;5.13;;;11.80;99.90;;;;;;5030254;28;20055;-58
2023/08/10 00:14:08;;;;;;;8.00;5.30;;;11.80;99.90;;;;;;5014110;28;20526;-54
2023/08/10 00:16:35;;;;;;;8.45;5.03;;;11.80;99.90;;;;;;5016913;28;20042;-55
2023/08/10 00:19:02;;;;;;;7.50;5.32;;;11.80;99.90;;;;;;5021332;28;20103;-49
2023/08/10 00:21:30;;;;;;;8.85;4.50;;;11.70;99.90;;;;;;5018899;28;20037;-57
2023/08/10 00:23:57;;;;;;;8.93;5.40;;;11.60;99.90;;;;;;5017448;28;20434;-50
2023/08/10 00:26:25;;;;;;;10.23;5.55;;;11.60;99.90;;;;;;5016614;28;20507;-54
2023/08/10 00:28:53;;;;;;;7.10;5.07;;;11.60;99.90;;;;;;5023934;28;20087;-53
2023/08/10 00:31:20;;;;;;;9.10;5.03;;;11.60;99.90;;;;;;5018447;28;20056;-52
2023/08/10 00:33:47;;;;;;;7.72;5.60;;;11.50;99.90;;;;;;5015867;28;20113;-52
2023/08/10 00:36:15;;;;;;;8.07;5.15;;;11.60;99.90;;;;;;5020540;28;20052;-53
2023/08/10 00:38:43;;;;;;;12.10;5.85;;;11.50;99.90;;;;;;5016364;28;20052;-57
2023/08/10 00:41:10;;;;;;;10.75;5.72;;;11.40;99.90;;;;;;5015166;28;20065;-55
2023/08/10 00:43:38;;;;;;;9.10;5.93;;;11.40;99.90;;;;;;5021304;28;20041;-54
2023/08/10 00:46:06;;;;;;;10.30;6.18;;;11.40;99.90;;;;;;5019595;28;20309;-57
2023/08/10 00:48:34;;;;;;;9.40;5.82;;;11.30;99.90;;;;;;5009244;28;20049;-54
2023/08/10 00:51:01;;;;;;;13.88;8.50;;;11.30;99.90;;;;;;5025160;28;20052;-54
2023/08/10 00:53:30;;;;;;;19.05;7.32;;;11.30;99.90;;;;;;5028447;28;20049;-49
2023/08/10 00:55:59;;;;;;;10.25;6.82;;;11.40;99.90;;;;;;5023728;28;20140;-51
2023/08/10 00:58:27;;;;;;;8.50;5.80;;;11.30;99.90;;;;;;5028436;28;20529;-51
2023/08/10 01:00:55;;;;;;;8.23;5.85;;;11.30;99.90;;;;;;5024629;28;20037;-50
2023/08/10 01:03:22;;;;;;;9.70;5.90;;;11.30;99.90;;;;;;5027045;28;20110;-56
2023/08/10 01:05:59;;;;;;;10.65;6.45;;;11.20;99.90;;;;;;5025328;28;20087;-58
2023/08/10 01:08:50;;;;;;;9.63;6.47;;;11.20;99.90;;;;;;5026535;28;20041;-52
2023/08/10 01:11:30;;;;;;;10.25;6.20;;;11.20;99.90;;;;;;5026400;28;20482;-53
2023/08/10 01:14:12;;;;;;;11.18;6.88;;;11.10;99.90;;;;;;5026846;28;20075;-57
2023/08/10 01:16:42;;;;;;;15.65;6.95;;;11.10;99.90;;;;;;5021366;28;20030;-52
2023/08/10 01:19:35;;;;;;;9.95;5.90;;;11.10;99.90;;;;;;5022754;28;20042;-53
2023/08/10 01:22:20;;;;;;;8.10;4.93;;;11.00;99.90;;;;;;5026796;28;20092;-53
2023/08/10 01:25:08;;;;;;;8.85;5.85;;;10.90;99.90;;;;;;5024040;28;20044;-58
2023/08/10 01:27:37;;;;;;;8.95;5.50;;;10.90;99.90;;;;;;5021926;28;20108;-57
2023/08/10 01:30:05;;;;;;;10.20;6.53;;;10.80;99.90;;;;;;5028959;28;20053;-54
2023/08/10 01:32:35;;;;;;;10.38;6.20;;;10.80;99.90;;;;;;5020702;28;20095;-54
2023/08/10 01:35:05;;;;;;;10.23;5.82;;;10.80;99.90;;;;;;5022890;28;20422;-52
2023/08/10 01:37:33;;;;;;;9.93;5.75;;;10.80;99.90;;;;;;5026448;28;20045;-53
2023/08/10 01:40:01;;;;;;;9.77;5.20;;;10.70;99.90;;;;;;5019012;28;20058;-56
2023/08/10 01:42:28;;;;;;;9.85;6.05;;;10.70;99.90;;;;;;5027046;28;20140;-51
2023/08/10 01:44:55;;;;;;;11.15;6.53;;;10.70;99.90;;;;;;5026427;28;20056;-55
2023/08/10 01:47:29;;;;;;;12.63;6.15;;;10.70;99.90;;;;;;5024709;28;20540;-52
2023/08/10 01:50:00;;;;;;;11.10;6.60;;;10.60;99.90;;;;;;5027491;28;20048;-54
2023/08/10 01:52:37;;;;;;;10.65;6.28;;;10.60;99.90;;;;;;5024788;28;20048;-57
2023/08/10 01:55:07;;;;;;;13.85;6.47;;;10.60;99.90;;;;;;5025533;28;20069;-60
2023/08/10 01:57:36;;;;;;;13.18;6.70;;;10.60;99.90;;;;;;5029665;28;20088;-52
2023/08/10 02:00:06;;;;;;;11.30;6.75;;;10.60;99.90;;;;;;5023979;28;20045;-49
2023/08/10 02:02:41;;;;;;;10.23;6.28;;;10.50;99.90;;;;;;5026166;28;20140;-53
2023/08/10 02:05:12;;;;;;;8.18;5.70;;;10.60;99.90;;;;;;5023360;28;20045;-53
2023/08/10 02:07:41;;;;;;;10.13;6.03;;;10.50;99.90;;;;;;5017385;28;20488;-52
2023/08/10 02:10:09;;;;;;;8.93;5.30;;;10.50;99.90;;;;;;5025051;28;20049;-51
2023/08/10 02:12:37;;;;;;;9.90;5.63;;;10.50;99.90;;;;;;5023897;28;20520;-55
2023/08/10 02:15:05;;;;;;;10.43;5.40;;;10.50;99.90;;;;;;5021949;28;20068;-59
2023/08/10 02:17:35;;;;;;;9.00;5.93;;;10.50;99.90;;;;;;5001552;28;20046;-53
2023/08/10 02:20:19;;;;;;;9.88;5.90;;;10.50;99.90;;;;;;5041431;28;20045;-50
2023/08/10 02:22:52;;;;;;;9.75;5.90;;;10.50;99.90;;;;;;5029207;28;20049;-52
2023/08/10 02:25:20;;;;;;;11.13;5.72;;;10.50;99.90;;;;;;5014440;28;20049;-54
2023/08/10 02:27:50;;;;;;;9.57;5.00;;;10.50;99.90;;;;;;5030032;28;20466;-56
2023/08/10 02:30:18;;;;;;;9.60;5.53;;;10.50;99.90;;;;;;5026742;28;20311;-55
2023/08/10 02:32:46;;;;;;;9.48;4.80;;;10.40;99.90;;;;;;5029736;28;20131;-51
2023/08/10 02:35:14;;;;;;;8.90;4.68;;;10.40;99.90;;;;;;5026847;28;20045;-57
2023/08/10 02:37:42;;;;;;;8.02;4.78;;;10.40;99.90;;;;;;5029534;28;20484;-51
2023/08/10 02:40:11;;;;;;;9.38;4.55;;;10.40;99.90;;;;;;5028763;28;20042;-50
2023/08/10 02:42:39;;;;;;;9.23;4.55;;;10.40;99.90;;;;;;5025655;28;20152;-52
2023/08/10 02:45:09;;;;;;;9.13;4.22;;;10.40;99.90;;;;;;5028960;28;20057;-52
2023/08/10 02:47:36;;;;;;;7.00;4.13;;;10.40;99.90;;;;;;5026308;28;20042;-56
2023/08/10 02:50:11;;;;;;;8.65;4.97;;;10.30;99.90;;;;;;5025205;28;20049;-55
2023/08/10 02:52:38;;;;;;;8.05;4.00;;;10.40;99.90;;;;;;5029936;28;20342;-49
2023/08/10 02:55:06;;;;;;;9.48;4.60;;;10.30;99.90;;;;;;5022669;28;20104;-55
2023/08/10 02:57:34;;;;;;;6.05;3.92;;;10.30;99.90;;;;;;5030584;28;20046;-55
2023/08/10 03:00:06;;;;;;;7.40;4.15;;;10.30;99.90;;;;;;5031054;28;20120;-56
2023/08/10 03:02:34;;;;;;;7.30;4.63;;;10.30;99.90;;;;;;5023372;28;20545;-51
2023/08/10 03:05:05;;;;;;;8.40;5.03;;;10.30;99.90;;;;;;5028237;28;20156;-48
2023/08/10 03:07:33;;;;;;;9.50;4.93;;;10.30;99.90;;;;;;5005647;28;20049;-56
2023/08/10 03:10:02;;;;;;;9.70;4.75;;;10.30;99.90;;;;;;5026754;28;20118;-53
2023/08/10 03:12:32;;;;;;;7.78;4.10;;;10.30;99.90;;;;;;5020723;28;20442;-56
2023/08/10 03:14:59;;;;;;;6.13;4.35;;;10.30;99.90;;;;;;5027628;28;20044;-53
2023/08/10 03:17:28;;;;;;;6.25;4.07;;;10.20;99.90;;;;;;5026711;28;20052;-50
2023/08/10 03:19:55;;;;;;;7.15;4.47;;;10.20;99.90;;;;;;5028775;28;20068;-56
2023/08/10 03:22:25;;;;;;;5.80;3.92;;;10.30;99.90;;;;;;5030205;28;20049;-53
2023/08/10 03:24:53;;;;;;;8.02;4.38;;;10.30;99.90;;;;;;5027670;28;20049;-53
2023/08/10 03:27:21;;;;;;;8.15;4.97;;;10.20;99.90;;;;;;5028561;28;20065;-56
2023/08/10 03:29:48;;;;;;;7.38;4.35;;;10.20;99.90;;;;;;5027840;28;20124;-54
2023/08/10 03:32:16;;;;;;;8.48;4.50;;;10.10;99.90;;;;;;5027748;28;20365;-56
2023/08/10 03:34:43;;;;;;;7.80;4.60;;;10.10;99.90;;;;;;5026270;28;20042;-55
2023/08/10 03:37:12;;;;;;;7.40;4.82;;;10.10;99.90;;;;;;5025997;28;20052;-55
2023/08/10 03:39:39;;;;;;;8.35;5.30;;;10.10;99.90;;;;;;5026544;28;20087;-53
2023/08/10 03:42:07;;;;;;;7.72;4.95;;;10.10;99.90;;;;;;5029851;28;20052;-58
2023/08/10 03:44:34;;;;;;;10.20;6.15;;;10.10;99.90;;;;;;5029132;28;20131;-56
2023/08/10 03:47:02;;;;;;;8.20;5.10;;;10.10;99.90;;;;;;5027471;28;20422;-57
2023/08/10 03:49:29;;;;;;;8.68;5.30;;;10.00;99.90;;;;;;5027784;28;20045;-54
2023/08/10 03:51:57;;;;;;;7.93;5.03;;;10.00;99.90;;;;;;5027930;28;20056;-53
2023/08/10 03:54:24;;;;;;;8.13;5.20;;;10.00;99.90;;;;;;5027178;28;20434;-55
2023/08/10 03:56:53;;;;;;;9.82;5.25;;;10.00;99.90;;;;;;5023791;28;20048;-58
2023/08/10 03:59:20;;;;;;;8.00;4.90;;;9.90;99.90;;;;;;5028355;28;20132;-53
2023/08/10 04:01:50;;;;;;;9.73;5.75;;;9.90;99.90;;;;;;5026019;28;20038;-55
2023/08/10 04:04:18;;;;;;;12.82;5.57;;;9.90;99.90;;;;;;5026643;28;20076;-53
2023/08/10 04:06:45;;;;;;;9.23;5.30;;;9.90;99.90;;;;;;5029450;28;20588;-57
2023/08/10 04:09:12;;;;;;;9.10;5.28;;;9.90;99.90;;;;;;5025818;28;20467;-57
2023/08/10 04:11:40;;;;;;;8.10;4.95;;;9.90;99.90;;;;;;5016815;28;20038;-59
2023/08/10 04:14:07;;;;;;;9.35;5.68;;;9.90;99.90;;;;;;5027472;28;20045;-55
2023/08/10 04:16:34;;;;;;;8.60;5.88;;;9.90;99.90;;;;;;5025582;28;20045;-54
2023/08/10 04:19:02;;;;;;;8.63;5.13;;;10.00;99.90;;;;;;5021660;28;20319;-53
2023/08/10 04:21:30;;;;;;;8.43;4.53;;;10.00;99.90;;;;;;5027356;28;20046;-55
2023/08/10 04:23:57;;;;;;;9.30;4.90;;;10.00;99.90;;;;;;5022485;28;20594;-58
2023/08/10 04:26:25;;;;;;;8.13;4.47;;;10.00;99.90;;;;;;5025836;28;20137;-58
2023/08/10 04:28:52;;;;;;;8.95;4.57;;;10.00;99.90;;;;;;5024862;28;20064;-60
2023/08/10 04:31:19;;;;;;;8.95;4.85;;;10.00;99.90;;;;;;5026902;28;20573;-57
2023/08/10 04:33:47;;;;;;;7.10;4.15;;;10.00;99.90;;;;;;5028032;28;20110;-52
2023/08/10 04:36:14;;;;;;;7.85;4.53;;;10.10;99.90;;;;;;5026489;28;20559;-55
2023/08/10 04:38:41;;;;;;;7.40;4.43;;;10.10;99.90;;;;;;5027360;28;20049;-53
2023/08/10 04:41:09;;;;;;;10.48;4.50;;;10.10;99.90;;;;;;5027499;28;20038;-50
2023/08/10 04:43:36;;;;;;;9.35;5.38;;;10.20;99.90;;;;;;5022578;28;20122;-55
2023/08/10 04:46:03;;;;;;;9.40;5.72;;;10.20;99.90;;;;;;5027475;28;20042;-51
2023/08/10 04:48:31;;;;;;;10.55;6.53;;;10.30;99.90;;;;;;5027442;28;20120;-57
2023/08/10 04:50:58;;;;;;;12.43;5.60;;;10.30;99.90;;;;;;5027113;28;20128;-56
2023/08/10 04:53:26;;;;;;;7.78;4.70;;;10.30;99.90;;;;;;5023488;28;20045;-55
2023/08/10 04:55:53;;;;;;;9.82;5.90;;;10.30;99.90;;;;;;5025970;28;20071;-53
2023/08/10 04:58:21;;;;;;;10.23;5.40;;;10.30;99.90;;;;;;5025784;28;20054;-56
2023/08/10 05:00:52;;;;;;;7.88;4.85;;;10.40;99.90;;;;;;5025771;28;20044;-59
2023/08/10 05:03:20;;;;;;;7.18;4.50;;;10.50;99.90;;;;;;5027082;28;20037;-53
2023/08/10 05:05:49;;;;;;;8.38;4.40;;;10.60;99.90;;;;;;5020268;28;20033;-53
2023/08/10 05:08:16;;;;;;;10.63;5.05;;;10.70;99.90;;;;;;5022770;28;20049;-51
2023/08/10 05:10:44;;;;;;;12.48;4.60;;;10.70;99.90;;;;;;5017887;28;20141;-55
2023/08/10 05:13:11;;;;;;;7.50;4.50;;;10.80;99.90;;;;;;5024845;28;20056;-52
2023/08/10 05:15:39;;;;;;;9.68;4.95;;;10.90;99.90;;;;;;5017130;28;20046;-54
2023/08/10 05:18:06;;;;;;;8.50;4.72;;;11.00;99.90;;;;;;5015208;28;20141;-54
2023/08/10 05:20:34;;;;;;;6.75;4.63;;;11.10;99.90;;;;;;5021194;28;20077;-54
2023/08/10 05:23:01;;;;;;;10.05;5.15;;;11.20;99.90;;;;;;5022058;28;20415;-57
2023/08/10 05:25:29;;;;;;;7.85;4.50;;;11.30;99.90;;;;;;5016589;28;20049;-49
2023/08/10 05:27:56;;;;;;;9.15;4.88;;;11.40;99.90;;;;;;5021039;28;20130;-51
2023/08/10 05:30:24;;;;;;;7.13;4.68;;;11.50;99.90;;;;;;5016698;28;20087;-53
2023/08/10 05:32:51;;;;;;;6.68;4.28;;;11.50;99.90;;;;;;5015222;28;20053;-53
2023/08/10 05:35:20;;;;;;;11.30;4.72;;;11.60;99.90;;;;;;5022915;28;20144;-53
2023/08/10 05:37:47;;;;;;;9.90;4.18;;;11.70;99.90;;;;;;5027741;28;20072;-56
2023/08/10 05:40:15;;;;;;;9.27;3.70;;;11.70;99.90;;;;;;5023049;28;20131;-52
2023/08/10 05:42:43;;;;;;;9.70;3.85;;;11.80;99.90;;;;;;5019316;28;20363;-53
2023/08/10 05:45:19;;;;;;;5.85;3.70;;;11.90;99.90;;;;;;5018551;28;20076;-52
2023/08/10 05:47:50;;;;;;;7.05;3.17;;;11.90;99.90;;;;;;5017523;28;20103;-54
2023/08/10 05:50:18;;;;;;;5.97;3.50;;;12.00;99.90;;;;;;5026514;28;20055;-53
2023/08/10 05:52:45;;;;;;;8.18;3.90;;;12.10;99.90;;;;;;5026385;28;20068;-56
2023/08/10 05:55:14;;;;;;;6.57;3.65;;;12.10;99.90;;;;;;5024624;28;20056;-55
2023/08/10 05:57:42;;;;;;;6.50;3.20;;;12.20;99.90;;;;;;5029088;28;20049;-51
2023/08/10 06:00:12;;;;;;;6.32;3.67;;;12.30;99.90;;;;;;5020930;28;20049;-57
2023/08/10 06:02:40;;;;;;;7.75;4.00;;;12.30;99.90;;;;;;5025619;28;20138;-56
2023/08/10 06:05:08;;;;;;;7.13;3.95;;;12.30;99.90;;;;;;5022836;28;20046;-56
2023/08/10 06:07:36;;;;;;;8.95;3.58;;;12.30;99.90;;;;;;5021324;28;20076;-55
2023/08/10 06:10:05;;;;;;;8.57;4.07;;;12.30;99.90;;;;;;5020900;28;20136;-53
2023/08/10 06:12:33;;;;;;;10.40;4.32;;;12.30;99.90;;;;;;5022011;28;20053;-52
2023/08/10 06:15:00;;;;;;;7.35;3.85;;;12.30;99.90;;;;;;5020724;28;20060;-51
2023/08/10 06:17:27;;;;;;;7.90;3.80;;;12.40;99.90;;;;;;5024368;28;20056;-51
2023/08/10 06:19:57;;;;;;;9.27;4.05;;;12.50;99.90;;;;;;5030133;28;20049;-49
2023/08/10 06:22:25;;;;;;;6.70;4.07;;;12.50;99.90;;;;;;5030280;28;20049;-52
2023/08/10 06:24:53;;;;;;;7.75;4.35;;;12.70;99.90;;;;;;5024570;28;20042;-48
2023/08/10 06:27:20;;;;;;;9.13;3.95;;;12.90;99.90;;;;;;5029936;28;20548;-51
2023/08/10 06:29:48;;;;;;;8.77;4.78;;;13.00;99.90;;;;;;5028471;28;20584;-50
2023/08/10 06:32:16;;;;;;;8.80;4.47;;;13.10;99.90;;;;;;5025568;28;20156;-47
2023/08/10 06:34:44;;;;;;;6.57;4.13;;;13.30;99.90;;;;;;5030165;28;20458;-55
2023/08/10 06:37:14;;;;;;;7.95;4.68;;;13.40;99.90;;;;;;5028456;28;20037;-50
2023/08/10 06:39:42;;;;;;;7.85;4.03;;;13.40;99.90;;;;;;5030311;28;20539;-56
2023/08/10 06:42:09;;;;;;;8.68;4.22;;;13.50;99.90;;;;;;5027684;28;20506;-54
2023/08/10 06:44:38;;;;;;;6.43;4.40;;;13.50;99.90;;;;;;5025330;28;20468;-53
2023/08/10 06:47:05;;;;;;;7.30;4.18;;;13.50;99.90;;;;;;5028385;28;20095;-51
2023/08/10 06:49:33;;;;;;;10.07;4.53;;;13.60;99.90;;;;;;5027018;28;20060;-54
2023/08/10 06:52:00;;;;;;;10.43;4.68;;;13.70;99.90;;;;;;5029562;28;20374;-57
2023/08/10 06:54:28;;;;;;;7.03;3.38;;;13.80;99.90;;;;;;5026846;28;20053;-54
2023/08/10 06:56:55;;;;;;;6.63;4.10;;;13.80;99.90;;;;;;5022284;28;20455;-51
2023/08/10 06:59:23;;;;;;;8.50;4.15;;;14.00;99.90;;;;;;5020148;28;20130;-56
2023/08/10 07:01:51;;;;;;;6.65;4.25;;;14.00;99.90;;;;;;5020556;28;20046;-53
2023/08/10 07:04:18;;;;;;;11.63;4.32;;;14.10;99.90;;;;;;5016002;28;20045;-53
2023/08/10 07:06:46;;;;;;;8.07;4.28;;;14.20;99.90;;;;;;5021217;28;20449;-50
2023/08/10 07:09:13;;;;;;;7.85;4.30;;;14.20;99.90;;;;;;5017110;28;20056;-52
2023/08/10 07:11:40;;;;;;;11.77;4.32;;;14.20;99.90;;;;;;5018870;28;20093;-52
2023/08/10 07:14:08;;;;;;;6.85;3.92;;;14.20;99.90;;;;;;5022318;28;20065;-59
2023/08/10 07:16:35;;;;;;;7.75;3.97;;;14.30;99.90;;;;;;5022021;28;20053;-54
2023/08/10 07:19:03;;;;;;;10.20;5.32;;;14.40;99.90;;;;;;5027126;28;20084;-55
2023/08/10 07:21:30;;;;;;;10.55;4.93;;;14.50;99.90;;;;;;5014930;28;20136;-51
2023/08/10 07:23:57;;;;;;;8.38;4.78;;;14.70;99.90;;;;;;5022950;28;20061;-51
2023/08/10 07:26:25;;;;;;;6.97;4.25;;;14.70;99.90;;;;;;5021662;28;20310;-55
2023/08/10 07:28:52;;;;;;;7.35;4.40;;;14.80;99.90;;;;;;5030453;28;20099;-56
2023/08/10 07:31:20;;;;;;;11.60;5.03;;;15.00;99.90;;;;;;5028619;28;20053;-52
2023/08/10 07:33:47;;;;;;;9.68;4.38;;;15.00;99.90;;;;;;5031007;28;20049;-58
2023/08/10 07:36:14;;;;;;;8.90;4.63;;;15.20;99.90;;;;;;5028325;28;20080;-56
2023/08/10 07:38:42;;;;;;;10.23;5.07;;;15.30;99.90;;;;;;5029706;28;20107;-54
2023/08/10 07:41:10;;;;;;;11.35;5.15;;;15.40;99.90;;;;;;5025760;28;20121;-57
2023/08/10 07:43:37;;;;;;;10.15;4.88;;;15.40;99.90;;;;;;5024668;28;20033;-58
2023/08/10 07:46:04;;;;;;;9.02;4.85;;;15.50;99.90;;;;;;5022805;28;20057;-55
2023/08/10 07:48:32;;;;;;;9.35;4.72;;;15.50;99.90;;;;;;5026798;28;20124;-59
2023/08/10 07:51:00;;;;;;;7.90;4.70;;;15.60;99.90;;;;;;5023135;28;20138;-54
2023/08/10 07:53:28;;;;;;;13.43;5.60;;;15.60;99.90;;;;;;5022895;28;20069;-52
2023/08/10 07:55:56;;;;;;;6.43;4.35;;;15.60;99.90;;;;;;5020010;28;20046;-52
2023/08/10 07:58:23;;;;;;;9.93;4.75;;;15.70;99.90;;;;;;5029049;28;20065;-54
2023/08/10 08:00:50;;;;;;;14.65;4.88;;;15.80;99.90;;;;;;5027932;28;20481;-52
2023/08/10 08:03:18;;;;;;;8.27;4.80;;;15.90;99.90;;;;;;5008995;28;20054;-48
2023/08/10 08:05:45;;;;;;;8.07;4.40;;;16.00;99.90;;;;;;5027642;28;20119;-56
2023/08/10 08:08:13;;;;;;;7.55;4.05;;;16.10;99.90;;;;;;5028119;28;20057;-51
2023/08/10 08:10:41;;;;;;;11.82;5.20;;;16.10;99.90;;;;;;5027531;28;20049;-51
2023/08/10 08:13:08;;;;;;;7.63;4.35;;;16.20;99.90;;;;;;5026271;28;20164;-58
2023/08/10 08:15:38;;;;;;;8.35;4.43;;;16.30;99.90;;;;;;5027857;28;20105;-55
2023/08/10 08:18:41;;;;;;;12.43;4.95;;;16.40;99.90;;;;;;5020964;28;20049;-49
2023/08/10 08:21:10;;;;;;;9.32;4.40;;;16.60;99.90;;;;;;5003326;28;20176;-54
2023/08/10 08:23:37;;;;;;;8.88;4.20;;;16.60;99.90;;;;;;5000874;28;20049;-55
2023/08/10 08:26:05;;;;;;;5.97;3.60;;;16.70;99.90;;;;;;4999861;28;20457;-52
2023/08/10 08:28:32;;;;;;;8.13;4.28;;;16.80;99.90;;;;;;5000457;28;20116;-50
2023/08/10 08:31:00;;;;;;;8.93;4.47;;;16.80;99.90;;;;;;5004414;28;20217;-52
2023/08/10 08:33:28;;;;;;;7.57;4.43;;;16.80;99.90;;;;;;5004591;28;20049;-49
2023/08/10 08:35:57;;;;;;;7.75;3.83;;;17.00;99.90;;;;;;5001517;28;20505;-55
2023/08/10 08:38:27;;;;;;;6.25;4.15;;;17.10;99.90;;;;;;5002942;28;20042;-57
2023/08/10 08:40:55;;;;;;;7.18;4.43;;;17.30;99.90;;;;;;5003579;28;20450;-52
2023/08/10 08:43:23;;;;;;;9.07;4.53;;;17.40;99.90;;;;;;5004370;28;20073;-52
2023/08/10 08:45:51;;;;;;;8.57;4.90;;;17.50;99.90;;;;;;5003133;28;20052;-55
2023/08/10 08:48:18;;;;;;;9.35;4.40;;;17.50;99.90;;;;;;4996986;28;20364;-56
2023/08/10 08:50:46;;;;;;;11.05;3.60;;;17.60;99.90;;;;;;4995280;28;20054;-52
2023/08/10 08:53:15;;;;;;;7.20;3.58;;;17.70;99.90;;;;;;5002384;28;20045;-53
2023/08/10 08:55:44;;;;;;;5.55;3.35;;;17.80;99.90;;;;;;5021731;28;20395;-51
2023/08/10 08:58:11;;;;;;;7.70;4.15;;;17.90;99.90;;;;;;5019995;28;20111;-51
2023/08/10 09:00:39;;;;;;;5.97;3.60;;;18.00;99.90;;;;;;5023096;28;20467;-52
2023/08/10 09:03:07;;;;;;;5.88;3.20;;;18.00;99.90;;;;;;5020125;28;20240;-53
2023/08/10 09:05:34;;;;;;;6.53;3.60;;;18.00;99.90;;;;;;5021389;28;20042;-53
2023/08/10 09:08:02;;;;;;;8.23;3.28;;;18.00;99.90;;;;;;5026079;28;20041;-54
2023/08/10 09:10:29;;;;;;;4.60;3.20;;;18.10;99.90;;;;;;5025510;28;20520;-51
2023/08/10 09:13:08;;;;;;;7.38;3.67;;;18.10;99.90;;;;;;5024282;28;20041;-52
2023/08/10 09:15:35;;;;;;;5.47;3.25;;;18.30;99.90;;;;;;5036004;28;20045;-53
2023/08/10 09:18:05;;;;;;;4.57;2.95;;;18.40;99.90;;;;;;5029227;28;20073;-52
2023/08/10 09:20:32;;;;;;;8.50;3.33;;;18.50;99.90;;;;;;5025420;28;20045;-52
2023/08/10 09:23:00;;;;;;;7.63;4.00;;;18.60;99.90;;;;;;5020030;28;20042;-54
2023/08/10 09:25:36;;;;;;;5.82;3.40;;;18.70;99.90;;;;;;5026257;28;20049;-53
2023/08/10 09:28:15;;;;;;;4.32;3.47;;;18.80;99.90;;;;;;5025992;28;20136;-56
2023/08/10 09:30:42;;;;;;;4.70;3.50;;;19.00;99.90;;;;;;5026396;28;20398;-50
2023/08/10 09:33:27;;;;;;;6.88;3.42;;;19.10;99.90;;;;;;5031124;28;20068;-53
2023/08/10 09:35:59;;;;;;;6.32;3.47;;;19.10;99.90;;;;;;5024339;28;20029;-48
2023/08/10 09:38:27;;;;;;;4.70;3.55;;;19.10;99.90;;;;;;5020784;28;20068;-56
2023/08/10 09:41:15;;;;;;;5.35;3.40;;;19.10;99.90;;;;;;5021825;28;20061;-53
2023/08/10 09:43:43;;;;;;;6.10;3.80;;;19.20;99.90;;;;;;5021479;28;20333;-54
2023/08/10 09:46:12;;;;;;;5.32;3.40;;;19.40;99.90;;;;;;5017672;28;20068;-55
2023/08/10 09:48:42;;;;;;;7.55;4.05;;;19.50;99.90;;;;;;5024243;28;20478;-57
2023/08/10 09:51:10;;;;;;;3.95;3.20;;;19.50;99.90;;;;;;5022888;28;20415;-53
2023/08/10 09:53:38;;;;;;;5.80;3.78;;;19.60;99.90;;;;;;5026296;28;20088;-57
2023/08/10 09:56:09;;;;;;;4.15;3.47;;;19.70;99.90;;;;;;5021701;28;20543;-54
2023/08/10 09:58:38;;;;;;;4.75;3.42;;;19.80;99.90;;;;;;5025512;28;20061;-50
2023/08/10 10:01:07;;;;;;;5.65;3.63;;;19.80;99.90;;;;;;5020894;28;20567;-51
2023/08/10 10:03:36;;;;;;;4.43;3.45;;;19.90;99.90;;;;;;5021641;28;20072;-54
2023/08/10 10:06:03;;;;;;;5.50;3.72;;;20.00;99.90;;;;;;5024350;28;20128;-52
2023/08/10 10:08:36;;;;;;;5.65;3.92;;;20.00;99.90;;;;;;5023843;28;20123;-55
2023/08/10 10:11:13;;;;;;;7.65;4.07;;;20.10;99.90;;;;;;5026896;28;20033;-54
2023/08/10 10:13:41;;;;;;;7.00;3.92;;;20.20;99.90;;;;;;5023747;28;20120;-51
2023/08/10 10:16:10;;;;;;;5.43;4.00;;;20.30;99.90;;;;;;5024115;28;20137;-58
2023/08/10 10:18:38;;;;;;;4.20;3.80;;;20.40;99.90;;;;;;5018903;28;20108;-54
2023/08/10 10:21:06;;;;;;;7.05;3.67;;;20.50;99.90;;;;;;5015902;28;20101;-52
2023/08/10 10:23:40;;;;;;;4.68;3.55;;;20.60;99.90;;;;;;5026620;28;20591;-55
2023/08/10 10:26:08;;;;;;;6.88;4.00;;;20.60;99.90;;;;;;5022565;28;20053;-54
2023/08/10 10:28:36;;;;;;;4.68;4.18;;;20.60;99.90;;;;;;5018614;28;20041;-54
2023/08/10 10:31:11;;;;;;;4.80;3.67;;;20.60;99.90;;;;;;5020108;28;20628;-55
2023/08/10 10:33:55;;;;;;;6.28;3.80;;;20.60;99.90;;;;;;5021072;28;20041;-50
2023/08/10 10:36:23;;;;;;;5.55;3.95;;;20.90;99.90;;;;;;5024543;28;20458;-53
2023/08/10 10:39:07;;;;;;;5.53;3.90;;;21.00;99.90;;;;;;5021133;28;20080;-51
2023/08/10 10:41:35;;;;;;;4.35;3.60;;;21.10;99.90;;;;;;5021695;28;20409;-44
2023/08/10 10:44:04;;;;;;;6.10;3.80;;;21.20;99.90;;;;;;5025168;28;20090;-53
2023/08/10 10:46:38;;;;;;;4.80;3.90;;;21.20;99.90;;;;;;5021623;28;20391;-54
2023/08/10 10:49:13;;;;;;;5.50;4.00;;;21.40;99.90;;;;;;5025708;28;20041;-57
2023/08/10 10:51:50;;;;;;;7.03;4.55;;;21.60;99.90;;;;;;5024168;28;20037;-53
2023/08/10 10:54:18;;;;;;;5.28;4.00;;;22.00;99.90;;;;;;5029736;28;20068;-59
2023/08/10 10:56:46;;;;;;;4.60;4.05;;;22.30;99.90;;;;;;5026462;28;20052;-51
2023/08/10 10:59:15;;;;;;;6.13;3.95;;;22.60;99.90;;;;;;5027147;28;20038;-52
2023/08/10 11:01:47;;;;;;;4.90;4.40;;;22.70;99.90;;;;;;5023525;28;20052;-54
2023/08/10 11:04:14;;;;;;;5.68;4.05;;;22.90;99.90;;;;;;5024981;28;20154;-56
2023/08/10 11:06:41;;;;;;;5.13;4.20;;;22.90;99.90;;;;;;5024412;28;20554;-51
2023/08/10 11:09:09;;;;;;;4.80;4.10;;;23.10;99.90;;;;;;5021213;28;20087;-53
2023/08/10 11:11:37;;;;;;;4.88;4.10;;;22.90;99.90;;;;;;5020995;28;20049;-54
2023/08/10 11:14:05;;;;;;;5.95;4.25;;;22.90;99.90;;;;;;5027475;28;20045;-55
2023/08/10 11:16:42;;;;;;;4.40;4.00;;;23.00;99.90;;;;;;5026497;28;20072;-51
2023/08/10 11:19:13;;;;;;;7.13;4.15;;;23.40;99.90;;;;;;5027901;28;20050;-54
2023/08/10 11:21:51;;;;;;;5.47;4.20;;;23.80;99.90;;;;;;5022485;28;20061;-51
2023/08/10 11:24:19;;;;;;;4.97;4.10;;;23.90;99.90;;;;;;5025507;28;20207;-53
2023/08/10 11:26:49;;;;;;;4.25;3.80;;;24.00;99.90;;;;;;5028968;28;20037;-54
2023/08/10 11:29:19;;;;;;;4.45;4.05;;;24.00;99.90;;;;;;5027537;28;20203;-53
2023/08/10 11:31:46;;;;;;;5.32;4.22;;;23.90;99.90;;;;;;5028802;28;20069;-51
2023/08/10 11:34:24;;;;;;;4.80;4.30;;;23.70;99.90;;;;;;5026846;28;20429;-52
2023/08/10 11:36:53;;;;;;;4.72;4.05;;;23.80;99.90;;;;;;5026556;28;20053;-53
2023/08/10 11:39:22;;;;;;;4.60;4.10;;;24.20;99.90;;;;;;5020041;28;20111;-53
2023/08/10 11:41:50;;;;;;;4.28;3.88;;;24.20;99.90;;;;;;5027196;28;20148;-49
2023/08/10 11:44:27;;;;;;;4.93;4.43;;;23.80;99.90;;;;;;5027267;28;20052;-55
2023/08/10 11:46:57;;;;;;;4.90;4.40;;;23.90;99.90;;;;;;5020470;28;20068;-51
2023/08/10 11:49:29;;;;;;;6.07;4.57;;;24.40;99.90;;;;;;5014889;28;20418;-55
2023/08/10 11:52:14;;;;;;;5.10;4.60;;;25.10;99.90;;;;;;5029130;28;20061;-54
2023/08/10 11:54:52;;;;;;;5.57;4.97;;;25.30;99.90;;;;;;5026044;28;20041;-54
2023/08/10 11:57:20;;;;;;;4.85;4.40;;;24.60;99.90;;;;;;5022576;28;20061;-53
2023/08/10 11:59:47;;;;;;;5.22;4.72;;;24.00;99.90;;;;;;5023273;28;20292;-47
2023/08/10 12:02:17;;;;;;;5.63;4.70;;;23.70;99.90;;;;;;5028080;28;20041;-55
2023/08/10 12:04:45;;;;;;;5.22;4.45;;;23.80;99.90;;;;;;5029023;28;20088;-54
2023/08/10 12:07:21;;;;;;;6.72;4.55;;;24.10;99.90;;;;;;5025818;28;20445;-52
2023/08/10 12:09:50;;;;;;;5.03;4.57;;;24.80;99.90;;;;;;5022361;28;20119;-51
2023/08/10 12:12:17;;;;;;;5.13;4.53;;;25.40;99.90;;;;;;5026697;28;20416;-53
2023/08/10 12:14:45;;;;;;;5.70;4.50;;;26.00;99.90;;;;;;5027588;28;20038;-46
2023/08/10 12:17:15;;;;;;;5.63;5.13;;;25.70;99.20;;;;;;5026932;28;20046;-54
2023/08/10 12:19:42;;;;;;;7.68;4.88;;;25.60;99.90;;;;;;5027453;28;20041;-46
2023/08/10 12:22:09;;;;;;;8.65;6.63;;;25.40;99.90;;;;;;5021207;28;20053;-49
2023/08/10 12:24:37;;;;;;;5.95;4.80;;;25.60;99.30;;;;;;5021110;28;20048;-49
2023/08/10 12:27:05;;;;;;;4.65;4.15;;;26.00;99.60;;;;;;5028417;28;20049;-48
2023/08/10 12:29:33;;;;;;;6.63;5.20;;;26.70;97.50;;;;;;5016331;28;20059;-49
2023/08/10 12:32:00;;;;;;;5.55;4.90;;;27.20;98.00;;;;;;5026983;28;20124;-53
2023/08/10 12:34:28;;;;;;;5.70;5.10;;;27.60;94.70;;;;;;5024927;28;20054;-50
2023/08/10 12:36:55;;;;;;;5.22;4.72;;;28.20;95.90;;;;;;5023279;28;20045;-49
2023/08/10 12:39:22;;;;;;;6.70;4.75;;;29.10;96.50;;;;;;5023026;28;20072;-57
2023/08/10 12:41:50;;;;;;;4.70;4.30;;;29.70;93.70;;;;;;5028012;28;20429;-50
2023/08/10 12:44:17;;;;;;;5.75;4.60;;;30.10;91.30;;;;;;5027772;28;20045;-51
2023/08/10 12:46:44;;;;;;;5.00;4.50;;;29.60;90.70;;;;;;5025793;28;20046;-48
2023/08/10 12:49:12;;;;;;;5.10;4.57;;;28.90;91.70;;;;;;5021472;28;20042;-51
2023/08/10 12:51:39;;;;;;;4.90;4.50;;;28.10;89.00;;;;;;5019510;28;20116;-56
2023/08/10 12:54:06;;;;;;;6.18;5.10;;;27.90;89.80;;;;;;5022183;28;20069;-50
2023/08/10 12:56:34;;;;;;;5.63;5.13;;;28.10;91.60;;;;;;5019655;28;20049;-50